sensor_id;sensor_type;location;lat;lon;timestamp;temperature;humidity
18712;DHT22;9485;49.386;8.674;2023-04-01T00:04:26;13.50;90.10
18712;DHT22;9485;49.386;8.674;2023-04-01T00:09:49;13.50;89.90
18712;DHT22;9485;49.386;8.674;2023-04-01T00:15:11;13.50;89.70
18712;DHT22;9485;49.386;8.674;2023-04-01T00:20:32;13.50;90.00
18712;DHT22;9485;49.386;8.674;2023-04-01T00:25:54;13.50;90.00
18712;DHT22;9485;49.386;8.674;2023-04-01T00:31:14;13.50;90.00
18712;DHT22;9485;49.386;8.674;2023-04-01T00:36:35;13.50;90.00
18712;DHT22;9485;49.386;8.674;2023-04-01T00:41:57;13.50;90.10
18712;DHT22;9485;49.386;8.674;2023-04-01T00:47:19;13.50;90.00
18712;DHT22;9485;49.386;8.674;2023-04-01T00:52:40;13.50;90.20
18712;DHT22;9485;49.386;8.674;2023-04-01T00:58:05;13.50;90.20
18712;DHT22;9485;49.386;8.674;2023-04-01T01:03:29;13.40;89.80
18712;DHT22;9485;49.386;8.674;2023-04-01T01:09:12;13.40;90.20
18712;DHT22;9485;49.386;8.674;2023-04-01T01:14:56;13.40;89.10
18712;DHT22;9485;49.386;8.674;2023-04-01T01:27:01;13.40;88.90
18712;DHT22;9485;49.386;8.674;2023-04-01T01:32:43;13.40;88.40
18712;DHT22;9485;49.386;8.674;2023-04-01T01:38:28;13.40;88.30
18712;DHT22;9485;49.386;8.674;2023-04-01T01:43:56;13.50;89.20
18712;DHT22;9485;49.386;8.674;2023-04-01T01:49:20;13.40;89.50
18712;DHT22;9485;49.386;8.674;2023-04-01T01:54:48;13.40;89.60
18712;DHT22;9485;49.386;8.674;2023-04-01T02:00:12;13.40;89.50
18712;DHT22;9485;49.386;8.674;2023-04-01T02:05:36;13.50;89.60
18712;DHT22;9485;49.386;8.674;2023-04-01T02:11:04;13.50;89.90
18712;DHT22;9485;49.386;8.674;2023-04-01T02:16:35;13.50;88.70
18712;DHT22;9485;49.386;8.674;2023-04-01T02:22:02;13.50;89.10
18712;DHT22;9485;49.386;8.674;2023-04-01T02:27:28;13.50;89.50
18712;DHT22;9485;49.386;8.674;2023-04-01T02:32:50;13.60;88.80
18712;DHT22;9485;49.386;8.674;2023-04-01T02:38:11;13.60;89.40
18712;DHT22;9485;49.386;8.674;2023-04-01T02:43:36;13.60;88.80
18712;DHT22;9485;49.386;8.674;2023-04-01T02:48:56;13.60;88.30
18712;DHT22;9485;49.386;8.674;2023-04-01T02:54:17;13.70;88.90
18712;DHT22;9485;49.386;8.674;2023-04-01T02:59:40;13.70;89.00
18712;DHT22;9485;49.386;8.674;2023-04-01T03:05:01;13.70;88.20
18712;DHT22;9485;49.386;8.674;2023-04-01T03:10:22;13.70;88.40
18712;DHT22;9485;49.386;8.674;2023-04-01T03:15:43;13.70;88.00
18712;DHT22;9485;49.386;8.674;2023-04-01T03:21:15;13.70;88.30
18712;DHT22;9485;49.386;8.674;2023-04-01T03:26:37;13.70;87.70
18712;DHT22;9485;49.386;8.674;2023-04-01T03:32:00;13.70;88.80
18712;DHT22;9485;49.386;8.674;2023-04-01T03:37:22;13.70;88.60
18712;DHT22;9485;49.386;8.674;2023-04-01T03:42:43;13.70;88.30
18712;DHT22;9485;49.386;8.674;2023-04-01T03:48:05;13.70;88.00
18712;DHT22;9485;49.386;8.674;2023-04-01T03:53:26;13.70;87.90
18712;DHT22;9485;49.386;8.674;2023-04-01T03:58:50;13.60;87.50
18712;DHT22;9485;49.386;8.674;2023-04-01T04:04:12;13.60;87.50
18712;DHT22;9485;49.386;8.674;2023-04-01T04:09:34;13.50;87.60
18712;DHT22;9485;49.386;8.674;2023-04-01T04:14:54;13.40;87.80
18712;DHT22;9485;49.386;8.674;2023-04-01T04:20:17;13.30;87.90
18712;DHT22;9485;49.386;8.674;2023-04-01T04:25:38;13.30;87.50
18712;DHT22;9485;49.386;8.674;2023-04-01T04:30:59;13.20;87.90
18712;DHT22;9485;49.386;8.674;2023-04-01T04:36:22;13.10;87.90
18712;DHT22;9485;49.386;8.674;2023-04-01T04:41:44;13.00;87.80
18712;DHT22;9485;49.386;8.674;2023-04-01T04:47:05;13.00;88.30
18712;DHT22;9485;49.386;8.674;2023-04-01T04:52:27;13.00;88.10
18712;DHT22;9485;49.386;8.674;2023-04-01T04:57:48;12.90;87.70
18712;DHT22;9485;49.386;8.674;2023-04-01T05:03:09;12.80;88.00
18712;DHT22;9485;49.386;8.674;2023-04-01T05:08:32;12.80;88.70
18712;DHT22;9485;49.386;8.674;2023-04-01T05:13:53;12.80;88.90
18712;DHT22;9485;49.386;8.674;2023-04-01T05:19:14;12.70;88.60
18712;DHT22;9485;49.386;8.674;2023-04-01T05:24:37;12.70;89.20
18712;DHT22;9485;49.386;8.674;2023-04-01T05:29:57;12.70;89.20
18712;DHT22;9485;49.386;8.674;2023-04-01T05:35:39;12.80;89.50
18712;DHT22;9485;49.386;8.674;2023-04-01T05:41:02;12.80;89.30
18712;DHT22;9485;49.386;8.674;2023-04-01T05:46:25;12.90;89.30
18712;DHT22;9485;49.386;8.674;2023-04-01T05:51:52;12.90;89.40
18712;DHT22;9485;49.386;8.674;2023-04-01T05:57:14;13.00;89.00
18712;DHT22;9485;49.386;8.674;2023-04-01T06:02:35;13.10;89.40
18712;DHT22;9485;49.386;8.674;2023-04-01T06:07:59;13.10;89.40
18712;DHT22;9485;49.386;8.674;2023-04-01T06:13:36;13.10;89.50
18712;DHT22;9485;49.386;8.674;2023-04-01T06:30:58;13.30;89.20
18712;DHT22;9485;49.386;8.674;2023-04-01T06:36:51;13.40;89.30
18712;DHT22;9485;49.386;8.674;2023-04-01T06:42:39;13.40;88.70
18712;DHT22;9485;49.386;8.674;2023-04-01T06:48:48;13.50;88.40
18712;DHT22;9485;49.386;8.674;2023-04-01T06:54:37;13.40;88.10
18712;DHT22;9485;49.386;8.674;2023-04-01T07:00:25;13.30;88.90
18712;DHT22;9485;49.386;8.674;2023-04-01T07:05:59;13.20;88.10
18712;DHT22;9485;49.386;8.674;2023-04-01T07:11:26;13.20;88.60
18712;DHT22;9485;49.386;8.674;2023-04-01T07:17:22;13.10;88.70
18712;DHT22;9485;49.386;8.674;2023-04-01T07:22:48;13.00;89.10
18712;DHT22;9485;49.386;8.674;2023-04-01T07:28:20;13.00;89.10
18712;DHT22;9485;49.386;8.674;2023-04-01T07:33:58;12.90;89.70
18712;DHT22;9485;49.386;8.674;2023-04-01T07:39:37;12.90;89.40
18712;DHT22;9485;49.386;8.674;2023-04-01T07:45:14;12.90;89.70
18712;DHT22;9485;49.386;8.674;2023-04-01T07:50:50;12.80;89.90
18712;DHT22;9485;49.386;8.674;2023-04-01T07:56:25;12.80;90.10
18712;DHT22;9485;49.386;8.674;2023-04-01T08:01:57;12.80;90.20
18712;DHT22;9485;49.386;8.674;2023-04-01T08:07:32;12.80;90.20
18712;DHT22;9485;49.386;8.674;2023-04-01T08:13:31;12.80;90.70
18712;DHT22;9485;49.386;8.674;2023-04-01T08:19:23;12.90;90.50
18712;DHT22;9485;49.386;8.674;2023-04-01T08:24:56;13.00;90.50
18712;DHT22;9485;49.386;8.674;2023-04-01T08:30:24;13.00;90.70
18712;DHT22;9485;49.386;8.674;2023-04-01T08:35:52;13.10;90.70
18712;DHT22;9485;49.386;8.674;2023-04-01T08:41:44;13.10;90.70
18712;DHT22;9485;49.386;8.674;2023-04-01T08:48:01;13.20;90.50
18712;DHT22;9485;49.386;8.674;2023-04-01T08:53:47;13.20;90.60
18712;DHT22;9485;49.386;8.674;2023-04-01T08:59:35;13.20;90.60
18712;DHT22;9485;49.386;8.674;2023-04-01T09:05:46;13.20;90.50
18712;DHT22;9485;49.386;8.674;2023-04-01T09:11:33;13.20;90.60
18712;DHT22;9485;49.386;8.674;2023-04-01T09:17:38;13.20;90.70
18712;DHT22;9485;49.386;8.674;2023-04-01T09:23:34;13.20;90.60
18712;DHT22;9485;49.386;8.674;2023-04-01T09:29:13;13.20;90.80
18712;DHT22;9485;49.386;8.674;2023-04-01T09:34:53;13.20;90.90
18712;DHT22;9485;49.386;8.674;2023-04-01T09:40:31;13.30;91.00
18712;DHT22;9485;49.386;8.674;2023-04-01T09:46:24;13.30;90.90
18712;DHT22;9485;49.386;8.674;2023-04-01T09:52:05;13.40;90.70
18712;DHT22;9485;49.386;8.674;2023-04-01T09:57:51;13.30;90.90
18712;DHT22;9485;49.386;8.674;2023-04-01T10:11:15;13.10;91.10
18712;DHT22;9485;49.386;8.674;2023-04-01T10:17:27;13.20;91.20
18712;DHT22;9485;49.386;8.674;2023-04-01T10:23:52;13.10;91.20
18712;DHT22;9485;49.386;8.674;2023-04-01T10:29:59;13.20;91.30
18712;DHT22;9485;49.386;8.674;2023-04-01T10:36:10;13.30;91.50
18712;DHT22;9485;49.386;8.674;2023-04-01T10:48:55;13.50;91.40
18712;DHT22;9485;49.386;8.674;2023-04-01T10:54:45;13.60;91.20
18712;DHT22;9485;49.386;8.674;2023-04-01T11:00:38;13.60;91.40
18712;DHT22;9485;49.386;8.674;2023-04-01T11:06:56;13.60;91.70
18712;DHT22;9485;49.386;8.674;2023-04-01T11:13:10;13.60;91.60
18712;DHT22;9485;49.386;8.674;2023-04-01T11:25:19;13.70;91.50
18712;DHT22;9485;49.386;8.674;2023-04-01T11:31:41;13.70;91.50
18712;DHT22;9485;49.386;8.674;2023-04-01T11:37:17;13.60;91.50
18712;DHT22;9485;49.386;8.674;2023-04-01T11:43:09;13.60;91.70
18712;DHT22;9485;49.386;8.674;2023-04-01T11:49:20;13.60;91.90
18712;DHT22;9485;49.386;8.674;2023-04-01T11:55:22;13.60;91.80
18712;DHT22;9485;49.386;8.674;2023-04-01T12:01:03;13.70;91.80
18712;DHT22;9485;49.386;8.674;2023-04-01T12:06:39;13.70;91.90
18712;DHT22;9485;49.386;8.674;2023-04-01T12:12:16;13.70;92.10
18712;DHT22;9485;49.386;8.674;2023-04-01T12:17:46;13.80;91.90
18712;DHT22;9485;49.386;8.674;2023-04-01T12:23:39;13.80;92.10
18712;DHT22;9485;49.386;8.674;2023-04-01T12:29:18;13.90;91.80
18712;DHT22;9485;49.386;8.674;2023-04-01T12:35:24;14.10;91.80
18712;DHT22;9485;49.386;8.674;2023-04-01T12:41:06;14.00;91.40
18712;DHT22;9485;49.386;8.674;2023-04-01T12:46:32;14.00;91.50
18712;DHT22;9485;49.386;8.674;2023-04-01T12:52:10;14.10;91.70
18712;DHT22;9485;49.386;8.674;2023-04-01T13:10:15;14.10;91.10
18712;DHT22;9485;49.386;8.674;2023-04-01T13:15:50;14.10;91.40
18712;DHT22;9485;49.386;8.674;2023-04-01T13:21:16;14.20;91.70
18712;DHT22;9485;49.386;8.674;2023-04-01T13:26:50;14.30;91.70
18712;DHT22;9485;49.386;8.674;2023-04-01T13:32:27;14.30;91.50
18712;DHT22;9485;49.386;8.674;2023-04-01T13:38:08;14.40;91.40
18712;DHT22;9485;49.386;8.674;2023-04-01T13:43:49;14.40;91.20
18712;DHT22;9485;49.386;8.674;2023-04-01T13:49:24;14.50;91.50
18712;DHT22;9485;49.386;8.674;2023-04-01T13:55:27;14.50;91.40
18712;DHT22;9485;49.386;8.674;2023-04-01T14:01:08;14.60;91.00
18712;DHT22;9485;49.386;8.674;2023-04-01T14:06:43;14.60;91.10
18712;DHT22;9485;49.386;8.674;2023-04-01T14:12:20;14.70;91.20
18712;DHT22;9485;49.386;8.674;2023-04-01T14:18:01;14.70;91.10
18712;DHT22;9485;49.386;8.674;2023-04-01T14:29:46;14.70;90.60
18712;DHT22;9485;49.386;8.674;2023-04-01T14:35:46;14.70;90.50
18712;DHT22;9485;49.386;8.674;2023-04-01T14:41:21;14.70;90.10
18712;DHT22;9485;49.386;8.674;2023-04-01T14:47:20;14.70;90.70
18712;DHT22;9485;49.386;8.674;2023-04-01T14:52:59;14.70;90.30
18712;DHT22;9485;49.386;8.674;2023-04-01T14:58:44;14.70;90.70
18712;DHT22;9485;49.386;8.674;2023-04-01T15:04:20;14.70;90.10
18712;DHT22;9485;49.386;8.674;2023-04-01T15:09:59;14.70;90.30
18712;DHT22;9485;49.386;8.674;2023-04-01T15:15:39;14.70;90.40
18712;DHT22;9485;49.386;8.674;2023-04-01T15:21:53;14.70;90.20
18712;DHT22;9485;49.386;8.674;2023-04-01T15:27:33;14.80;89.80
18712;DHT22;9485;49.386;8.674;2023-04-01T15:33:16;14.70;90.30
18712;DHT22;9485;49.386;8.674;2023-04-01T15:38:49;14.70;90.20
18712;DHT22;9485;49.386;8.674;2023-04-01T15:44:42;14.70;90.50
18712;DHT22;9485;49.386;8.674;2023-04-01T15:50:43;14.70;89.90
18712;DHT22;9485;49.386;8.674;2023-04-01T15:56:19;14.60;89.40
18712;DHT22;9485;49.386;8.674;2023-04-01T16:01:54;14.60;90.30
18712;DHT22;9485;49.386;8.674;2023-04-01T16:07:38;14.50;90.40
18712;DHT22;9485;49.386;8.674;2023-04-01T16:13:23;14.50;90.20
18712;DHT22;9485;49.386;8.674;2023-04-01T16:18:57;14.50;90.40
18712;DHT22;9485;49.386;8.674;2023-04-01T16:24:39;14.50;90.60
18712;DHT22;9485;49.386;8.674;2023-04-01T16:30:23;14.50;90.40
18712;DHT22;9485;49.386;8.674;2023-04-01T16:35:57;14.50;90.00
18712;DHT22;9485;49.386;8.674;2023-04-01T16:41:31;14.60;90.20
18712;DHT22;9485;49.386;8.674;2023-04-01T16:46:56;14.60;90.30
18712;DHT22;9485;49.386;8.674;2023-04-01T16:52:32;14.10;90.20
18712;DHT22;9485;49.386;8.674;2023-04-01T16:58:06;14.60;90.10
18712;DHT22;9485;49.386;8.674;2023-04-01T17:03:33;14.50;90.40
18712;DHT22;9485;49.386;8.674;2023-04-01T17:09:13;14.70;90.40
18712;DHT22;9485;49.386;8.674;2023-04-01T17:15:01;14.60;90.10
18712;DHT22;9485;49.386;8.674;2023-04-01T17:20:42;14.60;90.20
18712;DHT22;9485;49.386;8.674;2023-04-01T17:26:20;14.50;89.60
18712;DHT22;9485;49.386;8.674;2023-04-01T17:32:01;14.50;90.00
18712;DHT22;9485;49.386;8.674;2023-04-01T17:37:38;14.40;89.60
18712;DHT22;9485;49.386;8.674;2023-04-01T17:43:17;14.30;90.10
18712;DHT22;9485;49.386;8.674;2023-04-01T17:48:52;14.10;90.00
18712;DHT22;9485;49.386;8.674;2023-04-01T17:54:25;13.90;90.30
18712;DHT22;9485;49.386;8.674;2023-04-01T17:59:57;13.80;90.40
18712;DHT22;9485;49.386;8.674;2023-04-01T18:05:39;13.70;90.40
18712;DHT22;9485;49.386;8.674;2023-04-01T18:11:23;13.60;90.60
18712;DHT22;9485;49.386;8.674;2023-04-01T18:17:12;13.50;90.80
18712;DHT22;9485;49.386;8.674;2023-04-01T18:22:45;13.50;90.80
18712;DHT22;9485;49.386;8.674;2023-04-01T18:28:22;13.40;90.90
18712;DHT22;9485;49.386;8.674;2023-04-01T18:33:59;13.30;90.90
18712;DHT22;9485;49.386;8.674;2023-04-01T18:39:35;13.20;91.20
18712;DHT22;9485;49.386;8.674;2023-04-01T18:45:04;13.20;91.30
18712;DHT22;9485;49.386;8.674;2023-04-01T18:50:38;13.10;91.50
18712;DHT22;9485;49.386;8.674;2023-04-01T18:56:06;13.00;91.50
18712;DHT22;9485;49.386;8.674;2023-04-01T19:01:36;12.90;91.70
18712;DHT22;9485;49.386;8.674;2023-04-01T19:07:41;12.80;91.70
18712;DHT22;9485;49.386;8.674;2023-04-01T19:13:14;12.70;91.70
18712;DHT22;9485;49.386;8.674;2023-04-01T19:18:50;12.70;92.00
18712;DHT22;9485;49.386;8.674;2023-04-01T19:30:35;12.60;92.30
18712;DHT22;9485;49.386;8.674;2023-04-01T19:36:11;12.50;92.30
18712;DHT22;9485;49.386;8.674;2023-04-01T19:41:44;12.50;92.60
18712;DHT22;9485;49.386;8.674;2023-04-01T19:47:19;12.50;92.70
18712;DHT22;9485;49.386;8.674;2023-04-01T19:52:52;12.50;92.70
18712;DHT22;9485;49.386;8.674;2023-04-01T19:58:20;12.50;92.90
18712;DHT22;9485;49.386;8.674;2023-04-01T20:03:50;12.50;92.90
18712;DHT22;9485;49.386;8.674;2023-04-01T20:09:39;12.50;92.90
18712;DHT22;9485;49.386;8.674;2023-04-01T20:15:22;12.50;92.70
18712;DHT22;9485;49.386;8.674;2023-04-01T20:20:57;12.50;92.80
18712;DHT22;9485;49.386;8.674;2023-04-01T20:26:22;12.50;92.90
18712;DHT22;9485;49.386;8.674;2023-04-01T20:31:55;12.50;92.90
18712;DHT22;9485;49.386;8.674;2023-04-01T20:37:35;12.60;92.80
18712;DHT22;9485;49.386;8.674;2023-04-01T20:43:25;12.60;92.70
18712;DHT22;9485;49.386;8.674;2023-04-01T20:49:39;12.60;92.70
18712;DHT22;9485;49.386;8.674;2023-04-01T20:55:23;12.60;92.70
18712;DHT22;9485;49.386;8.674;2023-04-01T21:00:57;12.60;92.70
18712;DHT22;9485;49.386;8.674;2023-04-01T21:06:51;12.60;93.00
18712;DHT22;9485;49.386;8.674;2023-04-01T21:12:29;12.50;92.70
18712;DHT22;9485;49.386;8.674;2023-04-01T21:24:23;12.50;93.00
18712;DHT22;9485;49.386;8.674;2023-04-01T21:30:14;12.40;93.10
18712;DHT22;9485;49.386;8.674;2023-04-01T21:35:53;12.40;93.10
18712;DHT22;9485;49.386;8.674;2023-04-01T21:41:49;12.40;93.40
18712;DHT22;9485;49.386;8.674;2023-04-01T21:47:51;12.40;93.30
18712;DHT22;9485;49.386;8.674;2023-04-01T21:54:02;12.40;93.20
18712;DHT22;9485;49.386;8.674;2023-04-01T21:59:59;12.40;93.10
18712;DHT22;9485;49.386;8.674;2023-04-01T22:05:43;12.40;93.30
18712;DHT22;9485;49.386;8.674;2023-04-01T22:11:19;12.40;93.40
18712;DHT22;9485;49.386;8.674;2023-04-01T22:16:56;12.20;93.40
18712;DHT22;9485;49.386;8.674;2023-04-01T22:22:26;12.30;93.50
18712;DHT22;9485;49.386;8.674;2023-04-01T22:27:57;12.30;93.60
18712;DHT22;9485;49.386;8.674;2023-04-01T22:33:26;12.30;93.50
18712;DHT22;9485;49.386;8.674;2023-04-01T22:39:04;12.30;93.60
18712;DHT22;9485;49.386;8.674;2023-04-01T22:44:46;12.30;93.60
18712;DHT22;9485;49.386;8.674;2023-04-01T22:50:21;12.20;93.50
18712;DHT22;9485;49.386;8.674;2023-04-01T22:55:51;12.30;93.60
18712;DHT22;9485;49.386;8.674;2023-04-01T23:01:17;12.20;93.60
18712;DHT22;9485;49.386;8.674;2023-04-01T23:06:47;12.20;93.60
18712;DHT22;9485;49.386;8.674;2023-04-01T23:12:15;12.20;93.60
18712;DHT22;9485;49.386;8.674;2023-04-01T23:17:50;12.10;93.70
18712;DHT22;9485;49.386;8.674;2023-04-01T23:23:30;12.10;93.80
18712;DHT22;9485;49.386;8.674;2023-04-01T23:29:01;12.10;93.90
18712;DHT22;9485;49.386;8.674;2023-04-01T23:34:28;12.10;94.00
18712;DHT22;9485;49.386;8.674;2023-04-01T23:39:52;12.00;94.10
18712;DHT22;9485;49.386;8.674;2023-04-01T23:45:18;12.00;94.10
18712;DHT22;9485;49.386;8.674;2023-04-01T23:50:40;12.00;94.10
18712;DHT22;9485;49.386;8.674;2023-04-01T23:56:03;12.00;94.10
